Nearby METAR Reports

 

CYXU - London Airport, Ontario, Canada
Distance from station: SSE 21km
Updated: 12/11/2018 20:00
Overcast
Overcast
 Wind from N
Wind: N 9 km/h
Temperature: 2°C
Wind Chill: -1°C
Dew Point: -2°C
Humidity: 75%
Barometer: 1022.4 hPa
Clouds: Overcast
Visibility: 24 km
Cloud details: Overcast 3048 m
2018/11/13 01:00 CYXU 130100Z 35005KT 15SM OVC100 02/M02 A3019 RMK AC8 SLP236
CXDI - Delhi Cs (aut), Ontario, Canada
Distance from station: SE 65km
Updated: 12/11/2018 20:00

 Wind from SE
Wind: SE 2 km/h
Temperature: 3°C
Dew Point: 0°C
Humidity: 81%
2018/11/13 01:00 CXDI 130100Z AUTO 14001KT 03/M00 RMK AO1 SOG 01 8011 SLP227 T00271001
 
CYKF - Waterloo Well, Ontario, Canada
Distance from station: ENE 72km
Updated: 12/11/2018 20:00
Mostly cloudy
Mostly cloudy
 Wind from NNW
Wind: NNW 6 km/h
Temperature: 3°C
Dew Point: -2°C
Humidity: 70%
Barometer: 1022 hPa
Clouds: Mostly cloudy
Visibility: 14 km
Cloud details: Mostly cloudy 1829 m
2018/11/13 01:00 CYKF 130100Z AUTO 33003KT 9SM BKN060 03/M02 A3018 RMK SLP234
CWGD - Goderich (autob), Ontario, Canada
Distance from station: NW 76km
Updated: 12/11/2018 20:00

 Wind from NW
Wind: NW 11 km/h
Temperature: 3°C
Wind Chill: 0°C
Dew Point: -1°C
Humidity: 75%
2018/11/13 01:00 CWGD 130100Z AUTO 32006KT 03/M01 RMK AO1 SLP233 T00311014 58010
 
CZEL - Elora Rcs, Ontario, Canada
Distance from station: NE 81km
Updated: 12/11/2018 20:00

 Wind from NNW
Wind: NNW 4 km/h
Temperature: 1°C
Dew Point: -2°C
Humidity: 81%
2018/11/13 01:00 CZEL 130100Z AUTO 33002KT 01/M02 RMK AO1 SOG 04 8010 SLP234 T00131018